Time;durP1;ratioP1;P1;durP2;ratioP2;P2;SDS_P1;SDS_P2;PMS_P1;PMS_P2;Temp;Humidity;BMP_temperature;BMP_pressure;BME280_temperature;BME280_humidity;BME280_pressure;Samples;Min_cycle;Max_cycle;Signal;HPM_P1;HPM_P2
2023/07/25 00:00:04;;;;;;;15.00;6.10;;;;;;;20.35;57.07;98997.48;82191;1292;3012651;-69
2023/07/25 00:02:31;;;;;;;11.20;5.80;;;;;;;20.33;57.28;98989.98;82176;1292;3011432;-65
2023/07/25 00:04:59;;;;;;;14.30;6.20;;;;;;;20.29;57.45;98986.77;80959;1295;3052798;-68
2023/07/25 00:07:26;;;;;;;11.50;6.00;;;;;;;20.30;57.70;98984.89;82185;1291;3012658;-67
2023/07/25 00:09:52;;;;;;;11.00;5.90;;;;;;;20.33;57.90;98986.52;82190;1291;3011280;-68
2023/07/25 00:12:20;;;;;;;16.90;6.20;;;;;;;20.34;58.07;98983.27;80945;1293;3026453;-67
2023/07/25 00:14:46;;;;;;;15.10;6.40;;;;;;;20.29;58.17;98979.45;82215;1291;3012734;-67
2023/07/25 00:17:13;;;;;;;16.60;6.80;;;;;;;20.31;57.93;98976.66;82151;1295;3011291;-68
2023/07/25 00:19:40;;;;;;;22.30;7.30;;;;;;;20.34;57.50;98975.98;80928;1294;3026488;-68
2023/07/25 00:22:07;;;;;;;26.40;8.10;;;;;;;20.39;57.52;98974.73;82224;1291;3013102;-68
2023/07/25 00:24:33;;;;;;;25.90;9.70;;;;;;;20.36;57.74;98968.25;82162;1291;3011399;-67
2023/07/25 00:27:01;;;;;;;23.70;9.60;;;;;;;20.39;57.50;98966.31;80929;1291;3026094;-67
2023/07/25 00:29:27;;;;;;;33.20;11.80;;;;;;;20.39;57.56;98965.65;82169;1292;3012923;-67
2023/07/25 00:31:55;;;;;;;31.50;12.10;;;;;;;20.42;57.27;98971.68;82219;1295;3011303;-68
2023/07/25 00:34:23;;;;;;;33.40;13.90;;;;;;;20.40;57.50;98969.79;80935;1294;3054598;-67
2023/07/25 00:36:51;;;;;;;45.30;14.10;;;;;;;20.42;57.48;98968.99;82152;1294;3018329;-67
2023/07/25 00:39:17;;;;;;;31.50;14.60;;;;;;;20.44;57.52;98971.67;82192;1291;3011294;-67
2023/07/25 00:41:45;;;;;;;27.30;11.70;;;;;;;20.41;57.38;98973.18;80925;1292;3049932;-65
2023/07/25 00:44:11;;;;;;;32.60;13.00;;;;;;;20.40;57.24;98976.20;82165;1292;3018427;-65
2023/07/25 00:46:38;;;;;;;28.80;11.90;;;;;;;20.35;57.22;98974.71;82133;1291;3011343;-65
2023/07/25 00:49:06;;;;;;;34.60;11.30;;;;;;;20.21;57.61;98972.48;80784;1296;3024678;-64
2023/07/25 00:51:32;;;;;;;24.50;10.00;;;;;;;20.07;58.06;98971.95;82109;1293;3013286;-66
2023/07/25 00:53:59;;;;;;;25.60;9.60;;;;;;;20.02;58.14;98968.86;82067;1291;3011172;-65
2023/07/25 00:56:27;;;;;;;33.60;13.30;;;;;;;20.02;58.01;98974.75;80842;1291;3025579;-66
2023/07/25 00:58:54;;;;;;;28.30;10.60;;;;;;;19.93;58.14;98973.45;82185;1291;3013260;-67
2023/07/25 01:01:21;;;;;;;28.00;10.80;;;;;;;19.90;58.45;98974.33;82171;1291;3011325;-67
2023/07/25 01:03:48;;;;;;;30.50;12.90;;;;;;;19.84;58.76;98977.21;80950;1292;3026333;-64
2023/07/25 01:06:15;;;;;;;37.10;14.60;;;;;;;19.84;58.61;98973.01;82194;1291;3012738;-67
2023/07/25 01:08:52;;;;;;;47.00;16.10;;;;;;;19.80;58.67;98975.85;82098;1291;3011477;-69
2023/07/25 01:11:21;;;;;;;78.70;25.50;;;;;;;19.76;58.60;98973.61;80911;1292;3049118;-65
2023/07/25 01:13:47;;;;;;;70.90;22.80;;;;;;;19.72;58.55;98975.92;82209;1291;3011206;-67
2023/07/25 01:16:16;;;;;;;71.00;22.00;;;;;;;19.69;58.61;98967.83;82129;1292;3011454;-70
2023/07/25 01:18:44;;;;;;;50.00;14.30;;;;;;;19.59;58.87;98963.85;80831;1295;3051346;-70
2023/07/25 01:21:11;;;;;;;33.20;11.00;;;;;;;19.56;59.03;98962.95;82037;1294;3018205;-68
2023/07/25 01:23:38;;;;;;;46.10;13.30;;;;;;;19.51;59.22;98959.73;82086;1296;3011057;-68
2023/07/25 01:26:05;;;;;;;36.60;11.30;;;;;;;19.49;59.36;98957.84;80923;1291;3025856;-68
2023/07/25 01:28:32;;;;;;;26.50;9.20;;;;;;;19.49;59.50;98959.20;82198;1297;3018102;-64
2023/07/25 01:30:58;;;;;;;23.30;8.60;;;;;;;19.41;59.96;98959.02;82190;1292;3011423;-64
2023/07/25 01:33:26;;;;;;;20.20;7.50;;;;;;;19.41;59.62;98960.98;80858;1298;3025270;-66
2023/07/25 01:35:53;;;;;;;25.80;8.50;;;;;;;19.40;59.82;98964.09;82124;1293;3018827;-66
2023/07/25 01:38:19;;;;;;;20.10;8.10;;;;;;;19.31;60.37;98961.34;82216;1291;3011467;-68
2023/07/25 01:40:47;;;;;;;27.30;7.70;;;;;;;19.22;60.90;98957.11;80939;1291;3027287;-64
2023/07/25 01:43:14;;;;;;;18.90;7.80;;;;;;;19.17;61.00;98959.77;82132;1292;3012602;-67
2023/07/25 01:45:40;;;;;;;15.30;6.90;;;;;;;19.14;60.86;98959.91;82131;1292;3011157;-68
2023/07/25 01:48:08;;;;;;;20.70;7.50;;;;;;;19.12;60.64;98959.03;80915;1297;3025771;-67
2023/07/25 01:50:35;;;;;;;15.00;7.10;;;;;;;19.13;60.60;98960.69;82070;1298;3013071;-63
2023/07/25 01:53:01;;;;;;;18.00;7.00;;;;;;;19.15;60.45;98962.27;82150;1292;3011238;-65
2023/07/25 01:55:29;;;;;;;18.70;6.70;;;;;;;19.13;60.39;98958.52;80845;1293;3026508;-70
2023/07/25 01:57:56;;;;;;;20.40;7.40;;;;;;;19.07;60.67;98952.05;82136;1292;3012582;-68
2023/07/25 02:00:22;;;;;;;20.10;7.50;;;;;;;19.04;60.98;98950.48;82087;1292;3011245;-66
2023/07/25 02:02:52;;;;;;;17.40;6.80;;;;;;;19.02;61.32;98953.88;80747;1296;3053349;-71
2023/07/25 02:05:18;;;;;;;13.60;7.10;;;;;;;18.99;61.43;98956.30;82113;1296;3018813;-68
2023/07/25 02:07:45;;;;;;;15.70;7.30;;;;;;;18.99;60.84;98960.39;82097;1292;3012186;-69
2023/07/25 02:10:14;;;;;;;14.20;6.90;;;;;;;18.97;61.27;98964.11;80795;1292;3026583;-66
2023/07/25 02:12:40;;;;;;;21.30;7.60;;;;;;;18.94;61.03;98957.64;82103;1292;3012667;-68
2023/07/25 02:15:08;;;;;;;25.90;7.70;;;;;;;18.91;60.91;98956.96;82043;1294;3011294;-68
2023/07/25 02:17:36;;;;;;;20.70;7.90;;;;;;;18.95;61.10;98955.09;80852;1293;3052067;-70
2023/07/25 02:20:02;;;;;;;23.20;8.10;;;;;;;18.92;61.21;98956.41;82139;1292;3013234;-64
2023/07/25 02:22:29;;;;;;;24.20;8.30;;;;;;;18.94;61.30;98956.44;82024;1292;3011405;-69
2023/07/25 02:24:57;;;;;;;43.90;13.90;;;;;;;18.93;60.83;98960.80;80837;1297;3025636;-69
2023/07/25 02:27:24;;;;;;;33.70;12.40;;;;;;;18.96;60.96;98957.48;82047;1295;3012651;-67
2023/07/25 02:33:53;;;;;;;22.60;7.20;;;;;;;18.89;61.50;98958.77;80536;1292;3012967;-65
2023/07/25 02:36:20;;;;;;;14.90;6.40;;;;;;;18.81;61.67;98956.13;79427;1296;3011566;-68
2023/07/25 02:38:47;;;;;;;22.70;7.20;;;;;;;18.77;61.70;98954.26;79546;1298;3011938;-68
2023/07/25 02:41:17;;;;;;;13.00;6.40;;;;;;;18.69;62.22;98949.20;78359;1296;3053000;-66
2023/07/25 02:43:44;;;;;;;15.90;6.20;;;;;;;18.66;62.57;98948.09;79567;1295;3018844;-66
2023/07/25 02:46:11;;;;;;;14.40;6.10;;;;;;;18.63;62.74;98947.15;77526;1296;3039563;-65
2023/07/25 02:48:39;;;;;;;12.40;6.00;;;;;;;18.63;62.56;98953.16;79243;1297;3011607;-70
2023/07/25 02:51:06;;;;;;;15.70;7.30;;;;;;;18.57;62.72;98955.36;79680;1293;3014758;-64
2023/07/25 02:53:32;;;;;;;19.10;7.30;;;;;;;18.56;62.68;98956.89;79846;1297;3011547;-68
2023/07/25 02:56:00;;;;;;;13.70;6.80;;;;;;;18.51;62.74;98959.71;78673;1298;3028889;-67
2023/07/25 02:58:26;;;;;;;12.40;6.50;;;;;;;18.55;62.76;98964.46;79764;1293;3013308;-69
2023/07/25 03:00:53;;;;;;;15.60;7.20;;;;;;;18.60;62.43;98967.48;79767;1298;3012716;-68
2023/07/25 03:03:21;;;;;;;12.10;5.90;;;;;;;18.65;61.93;98966.80;78441;1297;3026923;-65
2023/07/25 03:05:47;;;;;;;11.80;6.30;;;;;;;18.68;62.33;98967.80;79609;1298;3013493;-68
2023/07/25 03:08:14;;;;;;;13.60;6.60;;;;;;;18.67;62.52;98971.64;79770;1295;3013217;-67
2023/07/25 03:10:42;;;;;;;10.30;6.10;;;;;;;18.65;62.70;98976.62;78481;1299;3026640;-66
2023/07/25 03:13:08;;;;;;;12.80;6.30;;;;;;;18.62;62.92;98970.85;79783;1293;3012854;-66
2023/07/25 03:15:35;;;;;;;13.50;7.10;;;;;;;18.60;63.20;98975.13;79676;1297;3011490;-72
2023/07/25 03:18:03;;;;;;;12.10;5.90;;;;;;;18.61;63.08;98977.03;78386;1298;3028569;-66
2023/07/25 03:20:30;;;;;;;10.40;6.10;;;;;;;18.60;63.27;98978.46;79558;1296;3013356;-69
2023/07/25 03:22:56;;;;;;;15.90;6.50;;;;;;;18.60;62.90;98980.75;79725;1292;3011861;-68
2023/07/25 03:25:24;;;;;;;14.20;6.10;;;;;;;18.64;63.06;98983.66;78549;1297;3026955;-65
2023/07/25 03:27:51;;;;;;;10.90;6.00;;;;;;;18.69;62.93;98980.66;79736;1298;3013228;-70
2023/07/25 03:30:18;;;;;;;12.10;6.50;;;;;;;18.75;62.69;98979.60;79655;1293;3011802;-67
2023/07/25 03:32:46;;;;;;;12.40;6.10;;;;;;;18.75;62.76;98978.88;78300;1293;3026350;-71
2023/07/25 03:35:12;;;;;;;15.70;6.30;;;;;;;18.78;62.79;98982.15;79695;1295;3018484;-70
2023/07/25 03:37:39;;;;;;;14.40;6.40;;;;;;;18.86;62.42;98986.02;79616;1298;3012069;-69
2023/07/25 03:40:07;;;;;;;10.40;6.50;;;;;;;18.90;62.35;98995.91;78475;1298;3029262;-65
2023/07/25 03:42:34;;;;;;;10.80;6.10;;;;;;;18.99;62.11;98997.44;79627;1298;3019131;-70
2023/07/25 03:45:00;;;;;;;15.70;5.70;;;;;;;19.00;62.15;98999.84;79490;1298;3011697;-72
2023/07/25 03:47:28;;;;;;;15.80;6.30;;;;;;;18.99;61.90;98998.83;78295;1298;3028426;-64
2023/07/25 03:49:54;;;;;;;11.70;6.40;;;;;;;18.99;62.54;98991.44;79759;1295;3019186;-69
2023/07/25 03:52:21;;;;;;;12.90;6.90;;;;;;;19.03;62.05;98996.70;79677;1298;3011512;-66
2023/07/25 03:54:48;;;;;;;14.60;6.60;;;;;;;18.97;62.20;99000.15;78206;1301;3026137;-66
2023/07/25 03:57:15;;;;;;;11.10;6.20;;;;;;;19.03;62.51;99002.94;79767;1294;3013700;-64
2023/07/25 03:59:42;;;;;;;15.60;6.70;;;;;;;19.06;61.93;99001.27;79603;1295;3012894;-64
2023/07/25 04:02:10;;;;;;;14.60;6.10;;;;;;;19.07;62.24;98995.42;78554;1293;3026313;-65
2023/07/25 04:04:37;;;;;;;11.90;6.20;;;;;;;19.09;62.53;98996.05;79638;1292;3012970;-66
2023/07/25 04:07:04;;;;;;;10.90;6.00;;;;;;;19.12;62.59;98984.81;79502;1292;3011469;-65
2023/07/25 04:09:32;;;;;;;11.70;6.90;;;;;;;19.18;62.48;98983.61;78567;1298;3052813;-65
2023/07/25 04:11:58;;;;;;;14.70;6.60;;;;;;;19.25;62.26;98985.49;79658;1297;3013177;-64
2023/07/25 04:14:24;;;;;;;19.00;6.40;;;;;;;19.27;62.26;98991.33;79532;1294;3012871;-66
2023/07/25 04:16:53;;;;;;;9.80;5.90;;;;;;;19.28;62.18;98995.85;78515;1292;3026680;-67
2023/07/25 04:19:19;;;;;;;14.30;6.30;;;;;;;19.32;61.79;98993.68;79740;1297;3018934;-68
2023/07/25 04:21:46;;;;;;;8.40;6.00;;;;;;;19.36;61.84;98996.32;79760;1293;3013290;-68
2023/07/25 04:24:14;;;;;;;15.20;6.40;;;;;;;19.36;62.23;98998.04;78479;1298;3027794;-70
2023/07/25 04:26:41;;;;;;;9.90;6.60;;;;;;;19.40;61.93;99002.09;79616;1298;3018681;-69
2023/07/25 04:29:07;;;;;;;11.10;6.20;;;;;;;19.45;62.03;99007.38;79671;1293;3011815;-67
2023/07/25 04:31:35;;;;;;;14.10;6.20;;;;;;;19.52;62.10;99004.27;78509;1292;3026471;-66
2023/07/25 04:34:01;;;;;;;15.70;7.20;;;;;;;19.55;61.67;99004.24;79763;1295;3012799;-66
2023/07/25 04:36:29;;;;;;;11.10;6.10;;;;;;;19.59;62.08;98999.89;79783;1295;3013211;-67
2023/07/25 04:38:57;;;;;;;11.10;6.00;;;;;;;19.64;61.48;98997.60;78550;1295;3052164;-67
2023/07/25 04:41:23;;;;;;;14.60;6.40;;;;;;;19.76;61.62;98998.50;79715;1297;3013752;-66
2023/07/25 04:43:50;;;;;;;10.40;6.10;;;;;;;19.84;61.65;98995.14;79613;1292;3012732;-66
2023/07/25 04:46:17;;;;;;;9.60;6.60;;;;;;;19.85;61.64;98987.23;78473;1295;3028418;-69
2023/07/25 04:48:44;;;;;;;11.30;7.00;;;;;;;19.94;61.63;98986.70;79699;1301;3013745;-67
2023/07/25 04:51:10;;;;;;;13.40;6.70;;;;;;;19.92;61.30;98995.37;79502;1298;3013096;-68
2023/07/25 04:53:38;;;;;;;15.00;6.70;;;;;;;20.00;61.59;98990.13;78575;1297;3026025;-68
2023/07/25 04:56:05;;;;;;;13.10;6.50;;;;;;;20.12;60.77;98988.43;79565;1295;3013764;-68
2023/07/25 04:58:32;;;;;;;12.10;6.40;;;;;;;20.10;60.98;98985.42;79696;1298;3011715;-67
2023/07/25 05:00:59;;;;;;;15.40;7.00;;;;;;;20.20;61.05;98987.02;78394;1298;3029212;-66
2023/07/25 05:03:26;;;;;;;9.90;6.50;;;;;;;20.22;61.04;98988.02;79717;1294;3013089;-68
2023/07/25 05:05:54;;;;;;;12.20;7.30;;;;;;;20.27;60.66;98992.89;79715;1295;3013179;-70
2023/07/25 05:08:22;;;;;;;11.70;6.50;;;;;;;20.29;60.92;98988.35;78358;1298;3052056;-63
2023/07/25 05:10:50;;;;;;;10.40;6.60;;;;;;;20.38;60.71;98986.19;82175;1292;3018789;-65
2023/07/25 05:13:16;;;;;;;14.00;7.50;;;;;;;20.49;60.80;98987.67;82184;1292;3012768;-69
2023/07/25 05:15:44;;;;;;;15.60;6.60;;;;;;;20.59;60.90;98991.70;80870;1292;3048360;-68
2023/07/25 05:18:10;;;;;;;14.30;7.00;;;;;;;20.67;60.47;98990.63;82177;1292;3013657;-68
2023/07/25 05:20:37;;;;;;;13.40;6.70;;;;;;;20.79;61.02;98987.21;82160;1295;3011574;-67
2023/07/25 05:23:06;;;;;;;7.70;6.10;;;;;;;20.84;60.03;98985.14;80917;1292;3027283;-64
2023/07/25 05:25:32;;;;;;;12.00;7.00;;;;;;;20.95;60.50;98984.54;82061;1294;3011589;-70
2023/07/25 05:27:59;;;;;;;14.20;6.50;;;;;;;21.06;60.74;98982.92;82132;1293;3011307;-65
2023/07/25 05:30:26;;;;;;;8.70;6.60;;;;;;;21.15;60.37;98973.68;80917;1292;3048904;-66
2023/07/25 05:32:53;;;;;;;11.90;6.70;;;;;;;21.20;60.18;98973.55;82166;1292;3012571;-69
2023/07/25 05:35:19;;;;;;;13.30;6.40;;;;;;;21.33;59.86;98974.23;82170;1294;3011182;-69
2023/07/25 05:37:47;;;;;;;10.60;6.20;;;;;;;21.46;59.90;98967.08;80928;1297;3026993;-67
2023/07/25 05:40:14;;;;;;;18.80;6.80;;;;;;;21.55;59.70;98968.23;82218;1292;3012848;-65
2023/07/25 05:42:43;;;;;;;14.90;7.00;;;;;;;21.59;58.96;98971.31;82169;1292;3011182;-67
2023/07/25 05:45:11;;;;;;;11.00;6.00;;;;;;;21.72;58.99;98968.04;80946;1293;3049077;-68
2023/07/25 05:47:37;;;;;;;9.50;6.10;;;;;;;21.90;58.34;98961.18;82168;1292;3012521;-68
2023/07/25 05:50:04;;;;;;;10.50;7.30;;;;;;;22.00;58.16;98965.77;82196;1292;3011682;-71
2023/07/25 05:52:32;;;;;;;10.80;6.00;;;;;;;22.09;58.55;98965.01;80891;1297;3026824;-66
2023/07/25 05:54:59;;;;;;;15.20;6.30;;;;;;;22.18;57.78;98970.79;82165;1292;3012485;-69
2023/07/25 05:57:25;;;;;;;13.20;6.10;;;;;;;22.28;57.17;98965.69;82161;1292;3011392;-69
2023/07/25 05:59:53;;;;;;;10.90;5.80;;;;;;;22.43;56.42;98964.34;80901;1292;3025963;-66
2023/07/25 06:02:20;;;;;;;18.30;6.30;;;;;;;22.50;56.26;98963.14;82188;1294;3012725;-65
2023/07/25 06:07:19;;;;;;;8.80;5.20;;;;;;;22.75;55.93;98955.43;79749;1306;3013524;-72
2023/07/25 06:09:45;;;;;;;11.60;5.50;;;;;;;22.88;55.76;98955.77;78932;1303;3018769;-70
2023/07/25 06:12:13;;;;;;;9.70;5.10;;;;;;;23.01;54.50;98956.92;79243;1308;3011584;-69
2023/07/25 06:14:41;;;;;;;12.60;5.80;;;;;;;23.04;53.86;98959.69;78023;1307;3054064;-68
2023/07/25 06:17:09;;;;;;;13.40;5.30;;;;;;;23.10;53.78;98956.31;78922;1303;3020540;-68
2023/07/25 06:19:35;;;;;;;9.20;5.10;;;;;;;23.25;53.35;98952.53;76796;1303;3011815;-72
2023/07/25 06:22:03;;;;;;;;;;;;;;;23.34;52.63;98947.55;77983;1301;3025829;-73
2023/07/25 06:24:30;;;;;;;8.60;5.00;;;;;;;23.38;52.43;98945.12;79257;1301;3018495;-70
2023/07/25 06:26:56;;;;;;;11.80;5.20;;;;;;;23.47;52.21;98947.04;79219;1304;3012896;-69
2023/07/25 06:29:24;;;;;;;10.50;4.90;;;;;;;23.54;51.86;98951.86;78039;1303;3025785;-74
2023/07/25 06:31:51;;;;;;;16.50;5.50;;;;;;;23.65;51.21;98950.77;79056;1306;3019200;-65
2023/07/25 06:34:17;;;;;;;11.20;5.20;;;;;;;23.75;50.86;98952.45;78902;1305;3011516;-65
2023/07/25 06:36:46;;;;;;;10.10;5.40;;;;;;;23.83;50.79;98952.39;77678;1305;3027933;-72
2023/07/25 06:39:13;;;;;;;7.70;5.00;;;;;;;23.95;50.64;98956.16;78900;1301;3012763;-73
2023/07/25 06:41:40;;;;;;;13.90;5.10;;;;;;;23.99;50.40;98961.32;78886;1306;3013204;-70
2023/07/25 06:44:08;;;;;;;12.60;5.10;;;;;;;24.01;49.63;98962.98;77992;1299;3053670;-65
2023/07/25 06:46:35;;;;;;;9.70;4.90;;;;;;;24.11;49.98;98954.00;79084;1302;3013051;-68
2023/07/25 06:49:01;;;;;;;16.50;5.50;;;;;;;24.19;49.70;98945.84;79112;1303;3011771;-69
2023/07/25 06:51:29;;;;;;;14.90;5.10;;;;;;;24.29;49.79;98940.27;77870;1300;3026677;-67
2023/07/25 06:53:55;;;;;;;10.20;5.20;;;;;;;24.40;49.54;98939.38;79128;1299;3013648;-69
2023/07/25 06:56:22;;;;;;;8.40;4.80;;;;;;;24.43;49.30;98942.07;79018;1303;3011858;-74
2023/07/25 06:58:51;;;;;;;9.50;4.50;;;;;;;24.51;49.33;98944.44;77858;1303;3028117;-67
2023/07/25 07:01:21;;;;;;;9.80;5.20;;;;;;;24.62;48.91;98944.11;79122;1302;3011802;-68
2023/07/25 07:03:49;;;;;;;9.60;4.40;;;;;;;24.75;49.58;98945.68;78083;1303;3025018;-68
2023/07/25 07:06:19;;;;;;;8.80;4.70;;;;;;;24.87;48.88;98946.63;79160;1300;3013071;-67
2023/07/25 07:08:48;;;;;;;12.70;4.80;;;;;;;25.00;48.88;98941.80;78080;1303;3054611;-76
2023/07/25 07:11:14;;;;;;;10.50;4.80;;;;;;;25.09;48.13;98941.13;79217;1305;3013459;-73
2023/07/25 07:13:41;;;;;;;11.40;4.90;;;;;;;25.19;47.85;98940.73;79393;1303;3011765;-78
2023/07/25 07:16:10;;;;;;;7.00;5.00;;;;;;;25.19;46.91;98939.36;78046;1302;3068913;-65
2023/07/25 07:18:38;;;;;;;8.70;4.40;;;;;;;25.32;47.19;98935.36;79264;1300;3013036;-70
2023/07/25 07:21:05;;;;;;;9.10;4.40;;;;;;;25.44;46.62;98928.71;79247;1300;3011576;-66
2023/07/25 07:23:33;;;;;;;10.50;5.20;;;;;;;25.50;46.79;98931.71;78061;1300;3053261;-77
2023/07/25 07:26:01;;;;;;;14.60;4.60;;;;;;;25.58;46.18;98932.14;79209;1303;3015326;-73
2023/07/25 07:28:29;;;;;;;11.50;4.50;;;;;;;25.68;46.46;98925.30;79092;1299;3012688;-73
2023/07/25 07:30:57;;;;;;;12.90;4.80;;;;;;;25.79;46.11;98919.48;78040;1301;3070163;-65
2023/07/25 07:33:26;;;;;;;9.00;4.90;;;;;;;25.90;45.84;98917.12;79125;1300;3013137;-72
2023/07/25 07:35:54;;;;;;;10.30;4.50;;;;;;;26.00;45.63;98925.24;79225;1300;3011731;-70
2023/07/25 07:38:23;;;;;;;10.50;4.80;;;;;;;26.12;45.45;98922.25;77892;1300;3053669;-69
2023/07/25 07:40:49;;;;;;;9.00;4.50;;;;;;;26.21;45.40;98925.23;79387;1303;3014140;-64
2023/07/25 07:43:18;;;;;;;9.90;4.20;;;;;;;26.34;45.19;98917.84;79201;1303;3012051;-72
2023/07/25 07:45:48;;;;;;;8.80;4.40;;;;;;;26.41;44.36;98919.23;77995;1300;3069168;-65
2023/07/25 07:48:16;;;;;;;9.00;4.20;;;;;;;26.39;43.50;98924.50;79076;1300;3011598;-71
2023/07/25 07:50:44;;;;;;;7.20;4.10;;;;;;;26.35;43.27;98924.80;78819;1301;3011789;-68
2023/07/25 07:53:12;;;;;;;10.60;4.50;;;;;;;26.37;43.33;98915.51;79168;1300;3013500;-69
2023/07/25 07:55:40;;;;;;;6.00;4.00;;;;;;;26.32;43.66;98914.61;79392;1297;3011756;-72
2023/07/25 07:58:10;;;;;;;9.20;4.40;;;;;;;26.50;43.86;98913.21;78237;1302;3051686;-67
2023/07/25 08:00:38;;;;;;;9.60;5.30;;;;;;;26.61;43.03;98919.69;79465;1300;3011628;-69
2023/07/25 08:03:10;;;;;;;11.20;5.00;;;;;;;26.64;42.23;98918.16;78352;1297;3070196;-68
2023/07/25 08:05:39;;;;;;;13.00;6.60;;;;;;;26.73;41.90;98915.42;79498;1299;3013620;-67
2023/07/25 08:08:08;;;;;;;17.10;5.10;;;;;;;26.76;41.67;98920.06;78276;1300;3048315;-73
2023/07/25 08:10:35;;;;;;;29.60;8.60;;;;;;;26.80;41.37;98925.91;79615;1301;3011864;-64
2023/07/25 08:13:02;;;;;;;14.80;6.80;;;;;;;26.88;41.48;98925.77;79493;1300;3011793;-69
2023/07/25 08:15:31;;;;;;;14.20;6.80;;;;;;;26.89;41.17;98926.36;78066;1303;3052752;-64
2023/07/25 08:17:59;;;;;;;11.60;5.60;;;;;;;27.00;41.14;98936.20;79409;1297;3013307;-68
2023/07/25 08:20:28;;;;;;;8.40;4.60;;;;;;;26.88;41.05;98942.83;78790;1296;3011722;-68
2023/07/25 08:22:56;;;;;;;8.30;4.60;;;;;;;26.89;40.93;98935.52;79227;1297;3014782;-72
2023/07/25 08:25:25;;;;;;;11.30;3.90;;;;;;;26.86;40.53;98925.01;79205;1300;3011744;-73
2023/07/25 08:27:54;;;;;;;9.60;3.90;;;;;;;26.98;40.30;98909.00;78001;1302;3051470;-76
2023/07/25 08:30:23;;;;;;;7.90;4.10;;;;;;;27.15;40.56;98899.88;79410;1302;3013036;-72
2023/07/25 08:32:54;;;;;;;7.50;4.10;;;;;;;27.21;40.86;98893.05;78704;1299;3011779;-68
2023/07/25 08:35:21;;;;;;;6.30;4.00;;;;;;;27.14;40.73;98895.82;79265;1297;3011681;-69
2023/07/25 08:37:48;;;;;;;8.60;4.20;;;;;;;27.11;40.46;98894.80;79016;1297;3011717;-70
2023/07/25 08:40:16;;;;;;;6.90;4.20;;;;;;;27.11;39.89;98896.55;78109;1301;3051726;-74
2023/07/25 08:42:43;;;;;;;6.80;4.10;;;;;;;27.23;39.93;98888.06;79354;1297;3012702;-72
2023/07/25 08:45:10;;;;;;;11.10;3.90;;;;;;;27.49;39.43;98880.06;79336;1297;3011406;-69
2023/07/25 08:47:41;;;;;;;8.20;4.00;;;;;;;27.58;39.54;98881.90;78141;1302;3052694;-68
2023/07/25 08:50:14;;;;;;;8.10;4.20;;;;;;;27.65;39.30;98886.96;79358;1297;3012846;-74
2023/07/25 08:52:52;;;;;;;8.10;4.10;;;;;;;27.56;38.88;98879.50;78183;1297;3051015;-70
2023/07/25 08:55:21;;;;;;;13.60;4.60;;;;;;;27.69;38.62;98872.44;78357;1297;3057854;-71
2023/07/25 09:01:52;;;;;;;10.20;4.60;;;;;;;27.89;37.42;98868.80;78166;1301;3053648;-72
2023/07/25 09:04:22;;;;;;;9.90;5.40;;;;;;;27.76;37.10;98868.61;79485;1296;3013806;-68
2023/07/25 09:06:51;;;;;;;10.10;5.10;;;;;;;27.97;37.39;98852.08;78128;1303;3051068;-70
2023/07/25 09:09:17;;;;;;;9.50;4.80;;;;;;;27.99;37.42;98856.47;79530;1297;3013312;-69
2023/07/25 09:11:44;;;;;;;8.30;4.70;;;;;;;27.99;37.69;98856.46;79393;1297;3011867;-67
2023/07/25 09:14:12;;;;;;;8.90;4.50;;;;;;;28.14;37.29;98856.52;78145;1303;3050890;-67
2023/07/25 09:16:39;;;;;;;10.00;4.50;;;;;;;28.24;36.24;98845.63;79352;1297;3013176;-68
2023/07/25 09:19:06;;;;;;;8.70;4.00;;;;;;;28.26;35.35;98836.08;79365;1303;3011588;-69
2023/07/25 09:21:48;;;;;;;9.50;4.70;;;;;;;28.27;35.43;98830.26;78131;1296;3026430;-71
2023/07/25 09:24:16;;;;;;;11.80;5.00;;;;;;;28.31;35.35;98827.80;78202;1301;3069124;-70
2023/07/25 09:26:50;;;;;;;6.00;4.30;;;;;;;28.49;35.19;98820.38;79494;1301;3013472;-67
2023/07/25 09:29:18;;;;;;;5.80;4.00;;;;;;;28.39;34.81;98820.19;78278;1297;3051269;-70
2023/07/25 09:31:45;;;;;;;9.40;4.70;;;;;;;28.57;34.29;98818.11;79367;1301;3013491;-74
2023/07/25 09:34:16;;;;;;;11.00;4.50;;;;;;;28.73;35.07;98812.88;79330;1297;3011851;-74
2023/07/25 09:36:46;;;;;;;11.30;4.80;;;;;;;28.83;36.36;98815.52;78666;1302;3053896;-70
2023/07/25 09:39:13;;;;;;;6.00;4.30;;;;;;;28.92;36.25;98818.73;79507;1297;3012642;-70
2023/07/25 09:41:40;;;;;;;9.10;4.50;;;;;;;29.15;36.40;98806.64;79552;1297;3013595;-74
2023/07/25 09:44:07;;;;;;;10.10;4.70;;;;;;;29.27;34.96;98811.30;78350;1297;3048189;-71
2023/07/25 09:46:34;;;;;;;11.20;4.50;;;;;;;29.10;35.07;98806.02;79400;1297;3013370;-66
2023/07/25 09:49:01;;;;;;;6.30;4.10;;;;;;;29.21;34.92;98817.30;79431;1300;3011656;-73
2023/07/25 09:51:29;;;;;;;10.10;4.20;;;;;;;29.47;34.18;98808.07;80637;1296;3026705;-72
2023/07/25 09:53:55;;;;;;;7.80;4.60;;;;;;;29.59;34.03;98808.03;81928;1296;3018629;-70
2023/07/25 09:56:23;;;;;;;11.00;5.10;;;;;;;29.54;34.04;98810.19;81876;1296;3011454;-71
2023/07/25 09:58:51;;;;;;;5.70;4.30;;;;;;;29.55;33.35;98814.14;80632;1297;3050237;-73
2023/07/25 10:01:18;;;;;;;7.90;4.10;;;;;;;29.71;33.40;98815.20;81933;1296;3012489;-71
2023/07/25 10:03:45;;;;;;;16.60;7.60;;;;;;;29.61;33.64;98812.63;81810;1299;3011392;-71
2023/07/25 10:06:16;;;;;;;12.90;5.60;;;;;;;29.70;34.09;98813.02;80640;1296;3026941;-72
2023/07/25 10:08:45;;;;;;;10.90;5.70;;;;;;;29.90;34.04;98815.27;81889;1297;3011070;-73
2023/07/25 10:11:13;;;;;;;10.00;5.50;;;;;;;29.93;33.85;98811.77;80659;1296;3049977;-72
2023/07/25 10:13:42;;;;;;;11.80;4.80;;;;;;;29.90;33.70;98813.79;81760;1303;3012352;-72
2023/07/25 10:16:14;;;;;;;12.10;5.00;;;;;;;29.88;34.06;98812.64;81354;1297;3011326;-73
2023/07/25 10:18:41;;;;;;;10.00;4.70;;;;;;;29.91;33.99;98801.23;81736;1299;3011495;-72
2023/07/25 10:21:11;;;;;;;9.30;5.10;;;;;;;29.95;34.27;98791.21;81340;1297;3012019;-70
2023/07/25 10:23:38;;;;;;;12.90;4.80;;;;;;;30.04;33.75;98789.95;81848;1299;3011201;-73
2023/07/25 10:26:14;;;;;;;10.30;5.00;;;;;;;30.07;34.16;98798.02;81883;1297;3011182;-69
2023/07/25 10:28:42;;;;;;;13.70;4.50;;;;;;;30.03;34.79;98789.59;80658;1303;3050644;-69
2023/07/25 10:31:12;;;;;;;20.80;5.50;;;;;;;30.08;34.76;98792.51;81897;1296;3013119;-70
2023/07/25 10:33:42;;;;;;;11.80;4.80;;;;;;;30.01;34.39;98791.88;81314;1300;3011615;-72
2023/07/25 10:36:21;;;;;;;8.10;4.60;;;;;;;30.05;34.18;98786.70;81740;1297;3011223;-68
2023/07/25 10:38:49;;;;;;;10.30;4.40;;;;;;;29.91;34.99;98787.86;80650;1301;3053409;-71
2023/07/25 10:41:16;;;;;;;7.00;4.10;;;;;;;29.85;34.38;98782.66;81911;1296;3012446;-67
2023/07/25 10:43:46;;;;;;;11.20;4.30;;;;;;;30.16;34.15;98776.86;81870;1297;3010849;-70
2023/07/25 10:46:18;;;;;;;6.20;4.30;;;;;;;30.29;34.43;98781.67;80626;1297;3056432;-68
2023/07/25 10:49:00;;;;;;;12.90;4.80;;;;;;;30.22;34.81;98782.73;81863;1297;3011268;-72
2023/07/25 10:51:51;;;;;;;8.70;4.20;;;;;;;30.20;34.95;98773.01;80613;1297;3053335;-72
2023/07/25 10:54:20;;;;;;;11.50;4.20;;;;;;;30.16;35.24;98771.77;80644;1299;3050058;-71
2023/07/25 10:57:09;;;;;;;7.00;3.60;;;;;;;30.21;35.39;98771.46;81953;1297;3012608;-70
2023/07/25 11:00:10;;;;;;;7.50;3.70;;;;;;;30.34;35.20;98767.92;80615;1297;3070446;-71
2023/07/25 11:02:42;;;;;;;9.50;4.30;;;;;;;30.22;35.29;98765.90;80563;1296;3052666;-71
2023/07/25 11:05:12;;;;;;;;;;;;;;;30.57;34.99;98762.84;81914;1296;3011293;-71
2023/07/25 11:07:47;;;;;;;7.60;3.80;;;;;;;30.58;34.89;98769.05;80659;1296;3048708;-71
2023/07/25 11:10:28;;;;;;;6.10;3.20;;;;;;;30.38;35.29;98757.12;80577;1297;3052941;-71
2023/07/25 11:12:59;;;;;;;7.20;4.10;;;;;;;30.26;35.25;98753.73;80654;1297;3050378;-72
2023/07/25 11:15:26;;;;;;;6.90;3.60;;;;;;;30.16;35.82;98747.19;81912;1297;3011237;-73
2023/07/25 11:17:55;;;;;;;6.20;3.70;;;;;;;30.38;35.62;98751.96;80662;1296;3027314;-72
2023/07/25 11:20:22;;;;;;;10.20;4.00;;;;;;;30.48;35.59;98754.19;81923;1297;3011299;-71
2023/07/25 11:22:50;;;;;;;11.40;3.70;;;;;;;30.58;35.42;98740.64;82004;1295;3011089;-70
2023/07/25 11:25:18;;;;;;;9.70;3.70;;;;;;;30.84;34.88;98738.68;80734;1295;3050459;-73